sensor_id;sensor_type;location;lat;lon;timestamp;P1;durP1;ratioP1;P2;durP2;ratioP2
80229;SDS011;69540;42.136;24.742;2023-09-12T00:00:49;0.95;;;0.95;;
80229;SDS011;69540;42.136;24.742;2023-09-12T00:03:17;0.75;;;0.75;;
80229;SDS011;69540;42.136;24.742;2023-09-12T00:05:51;1.00;;;1.00;;
80229;SDS011;69540;42.136;24.742;2023-09-12T00:08:17;1.05;;;1.02;;
80229;SDS011;69540;42.136;24.742;2023-09-12T00:10:43;0.88;;;0.80;;
80229;SDS011;69540;42.136;24.742;2023-09-12T00:13:08;1.10;;;1.00;;
80229;SDS011;69540;42.136;24.742;2023-09-12T00:15:34;1.90;;;1.08;;
80229;SDS011;69540;42.136;24.742;2023-09-12T00:18:00;1.27;;;1.20;;
80229;SDS011;69540;42.136;24.742;2023-09-12T00:20:25;0.75;;;0.75;;
80229;SDS011;69540;42.136;24.742;2023-09-12T00:22:51;0.68;;;0.68;;
80229;SDS011;69540;42.136;24.742;2023-09-12T00:25:19;0.85;;;0.85;;
80229;SDS011;69540;42.136;24.742;2023-09-12T00:27:45;1.45;;;1.10;;
80229;SDS011;69540;42.136;24.742;2023-09-12T00:30:11;0.98;;;0.98;;
80229;SDS011;69540;42.136;24.742;2023-09-12T00:32:38;1.33;;;1.23;;
80229;SDS011;69540;42.136;24.742;2023-09-12T00:35:04;0.98;;;0.80;;
80229;SDS011;69540;42.136;24.742;2023-09-12T00:37:30;0.88;;;0.88;;
80229;SDS011;69540;42.136;24.742;2023-09-12T00:39:56;0.82;;;0.82;;
80229;SDS011;69540;42.136;24.742;2023-09-12T00:42:24;1.05;;;1.00;;
80229;SDS011;69540;42.136;24.742;2023-09-12T00:44:51;0.93;;;0.93;;
80229;SDS011;69540;42.136;24.742;2023-09-12T00:47:16;0.73;;;0.73;;
80229;SDS011;69540;42.136;24.742;2023-09-12T00:49:44;0.65;;;0.65;;
80229;SDS011;69540;42.136;24.742;2023-09-12T00:52:11;0.98;;;0.98;;
80229;SDS011;69540;42.136;24.742;2023-09-12T00:54:37;1.00;;;0.95;;
80229;SDS011;69540;42.136;24.742;2023-09-12T00:57:04;1.35;;;1.25;;
80229;SDS011;69540;42.136;24.742;2023-09-12T00:59:30;1.00;;;1.00;;
80229;SDS011;69540;42.136;24.742;2023-09-12T01:01:55;0.88;;;0.88;;
80229;SDS011;69540;42.136;24.742;2023-09-12T01:04:21;1.00;;;1.00;;
80229;SDS011;69540;42.136;24.742;2023-09-12T01:06:47;0.98;;;0.98;;
80229;SDS011;69540;42.136;24.742;2023-09-12T01:09:13;1.05;;;1.05;;
80229;SDS011;69540;42.136;24.742;2023-09-12T01:11:39;1.10;;;1.08;;
80229;SDS011;69540;42.136;24.742;2023-09-12T01:14:06;1.10;;;1.00;;
80229;SDS011;69540;42.136;24.742;2023-09-12T01:16:31;1.00;;;1.00;;
80229;SDS011;69540;42.136;24.742;2023-09-12T01:18:57;0.90;;;0.90;;
80229;SDS011;69540;42.136;24.742;2023-09-12T01:21:47;1.40;;;1.30;;
80229;SDS011;69540;42.136;24.742;2023-09-12T01:29:42;0.98;;;0.98;;
80229;SDS011;69540;42.136;24.742;2023-09-12T01:32:10;0.90;;;0.90;;
80229;SDS011;69540;42.136;24.742;2023-09-12T01:34:37;1.15;;;1.13;;
80229;SDS011;69540;42.136;24.742;2023-09-12T01:37:02;1.10;;;1.10;;
80229;SDS011;69540;42.136;24.742;2023-09-12T01:39:28;0.82;;;0.82;;
80229;SDS011;69540;42.136;24.742;2023-09-12T01:41:54;1.30;;;1.20;;
80229;SDS011;69540;42.136;24.742;2023-09-12T01:44:20;0.98;;;0.95;;
80229;SDS011;69540;42.136;24.742;2023-09-12T01:46:50;1.70;;;1.10;;
80229;SDS011;69540;42.136;24.742;2023-09-12T01:49:19;0.85;;;0.85;;
80229;SDS011;69540;42.136;24.742;2023-09-12T01:51:48;1.15;;;1.08;;
80229;SDS011;69540;42.136;24.742;2023-09-12T01:54:15;0.80;;;0.80;;
80229;SDS011;69540;42.136;24.742;2023-09-12T01:56:41;0.80;;;0.80;;
80229;SDS011;69540;42.136;24.742;2023-09-12T01:59:08;0.77;;;0.77;;
80229;SDS011;69540;42.136;24.742;2023-09-12T02:01:34;1.40;;;1.00;;
80229;SDS011;69540;42.136;24.742;2023-09-12T02:03:59;0.82;;;0.82;;
80229;SDS011;69540;42.136;24.742;2023-09-12T02:06:25;1.95;;;1.10;;
80229;SDS011;69540;42.136;24.742;2023-09-12T02:08:51;0.93;;;0.93;;
80229;SDS011;69540;42.136;24.742;2023-09-12T02:11:16;0.98;;;0.90;;
80229;SDS011;69540;42.136;24.742;2023-09-12T02:13:42;1.17;;;1.08;;
80229;SDS011;69540;42.136;24.742;2023-09-12T02:16:07;1.15;;;1.10;;
80229;SDS011;69540;42.136;24.742;2023-09-12T02:18:33;1.55;;;0.90;;
80229;SDS011;69540;42.136;24.742;2023-09-12T02:20:59;0.88;;;0.70;;
80229;SDS011;69540;42.136;24.742;2023-09-12T02:23:24;0.80;;;0.80;;
80229;SDS011;69540;42.136;24.742;2023-09-12T02:25:50;0.90;;;0.90;;
80229;SDS011;69540;42.136;24.742;2023-09-12T02:28:15;1.23;;;1.13;;
80229;SDS011;69540;42.136;24.742;2023-09-12T02:30:41;1.27;;;1.17;;
80229;SDS011;69540;42.136;24.742;2023-09-12T02:33:07;0.80;;;0.80;;
80229;SDS011;69540;42.136;24.742;2023-09-12T02:35:32;1.30;;;1.15;;
80229;SDS011;69540;42.136;24.742;2023-09-12T02:37:58;1.08;;;1.00;;
80229;SDS011;69540;42.136;24.742;2023-09-12T02:40:24;1.33;;;1.23;;
80229;SDS011;69540;42.136;24.742;2023-09-12T02:42:49;1.10;;;1.00;;
80229;SDS011;69540;42.136;24.742;2023-09-12T02:45:15;1.05;;;0.98;;
80229;SDS011;69540;42.136;24.742;2023-09-12T02:47:41;0.88;;;0.88;;
80229;SDS011;69540;42.136;24.742;2023-09-12T02:50:08;1.02;;;0.90;;
80229;SDS011;69540;42.136;24.742;2023-09-12T02:52:34;1.00;;;0.90;;
80229;SDS011;69540;42.136;24.742;2023-09-12T02:55:00;1.00;;;1.00;;
80229;SDS011;69540;42.136;24.742;2023-09-12T02:57:25;0.80;;;0.80;;
80229;SDS011;69540;42.136;24.742;2023-09-12T02:59:51;1.08;;;1.00;;
80229;SDS011;69540;42.136;24.742;2023-09-12T03:02:17;0.90;;;0.90;;
80229;SDS011;69540;42.136;24.742;2023-09-12T03:04:42;1.10;;;1.00;;
80229;SDS011;69540;42.136;24.742;2023-09-12T03:07:08;0.98;;;0.98;;
80229;SDS011;69540;42.136;24.742;2023-09-12T03:09:33;1.48;;;1.05;;
80229;SDS011;69540;42.136;24.742;2023-09-12T03:12:02;1.10;;;1.00;;
80229;SDS011;69540;42.136;24.742;2023-09-12T03:14:28;0.93;;;0.93;;
80229;SDS011;69540;42.136;24.742;2023-09-12T03:16:54;0.75;;;0.75;;
80229;SDS011;69540;42.136;24.742;2023-09-12T03:19:20;0.70;;;0.70;;
80229;SDS011;69540;42.136;24.742;2023-09-12T03:21:46;1.13;;;1.05;;
80229;SDS011;69540;42.136;24.742;2023-09-12T03:24:12;0.93;;;0.70;;
80229;SDS011;69540;42.136;24.742;2023-09-12T03:26:38;1.17;;;1.08;;
80229;SDS011;69540;42.136;24.742;2023-09-12T03:29:04;1.08;;;0.85;;
80229;SDS011;69540;42.136;24.742;2023-09-12T03:31:29;1.00;;;1.00;;
80229;SDS011;69540;42.136;24.742;2023-09-12T03:33:55;1.17;;;1.13;;
80229;SDS011;69540;42.136;24.742;2023-09-12T03:36:21;1.08;;;0.98;;
80229;SDS011;69540;42.136;24.742;2023-09-12T03:38:47;0.70;;;0.65;;
80229;SDS011;69540;42.136;24.742;2023-09-12T03:41:12;1.63;;;1.00;;
80229;SDS011;69540;42.136;24.742;2023-09-12T03:43:38;0.80;;;0.80;;
80229;SDS011;69540;42.136;24.742;2023-09-12T03:46:04;1.60;;;1.50;;
80229;SDS011;69540;42.136;24.742;2023-09-12T03:48:30;3.70;;;2.17;;
80229;SDS011;69540;42.136;24.742;2023-09-12T03:50:56;2.05;;;1.95;;
80229;SDS011;69540;42.136;24.742;2023-09-12T03:53:22;2.50;;;2.30;;
80229;SDS011;69540;42.136;24.742;2023-09-12T03:55:48;2.67;;;2.25;;
80229;SDS011;69540;42.136;24.742;2023-09-12T03:58:13;3.83;;;2.28;;
80229;SDS011;69540;42.136;24.742;2023-09-12T04:00:39;5.95;;;2.08;;
80229;SDS011;69540;42.136;24.742;2023-09-12T04:03:05;5.32;;;2.30;;
80229;SDS011;69540;42.136;24.742;2023-09-12T04:05:30;2.53;;;2.05;;
80229;SDS011;69540;42.136;24.742;2023-09-12T04:07:56;2.97;;;2.10;;
80229;SDS011;69540;42.136;24.742;2023-09-12T04:10:22;4.68;;;2.25;;
80229;SDS011;69540;42.136;24.742;2023-09-12T04:12:48;2.38;;;2.17;;
80229;SDS011;69540;42.136;24.742;2023-09-12T04:15:14;4.40;;;2.30;;
80229;SDS011;69540;42.136;24.742;2023-09-12T04:17:39;3.65;;;2.20;;
80229;SDS011;69540;42.136;24.742;2023-09-12T04:20:05;3.55;;;2.22;;
80229;SDS011;69540;42.136;24.742;2023-09-12T04:22:32;4.57;;;2.20;;
80229;SDS011;69540;42.136;24.742;2023-09-12T04:24:58;3.35;;;2.30;;
80229;SDS011;69540;42.136;24.742;2023-09-12T04:27:23;2.70;;;2.05;;
80229;SDS011;69540;42.136;24.742;2023-09-12T04:29:49;3.53;;;2.17;;
80229;SDS011;69540;42.136;24.742;2023-09-12T04:32:15;3.00;;;2.47;;
80229;SDS011;69540;42.136;24.742;2023-09-12T04:34:44;2.67;;;2.47;;
80229;SDS011;69540;42.136;24.742;2023-09-12T04:37:10;4.22;;;2.40;;
80229;SDS011;69540;42.136;24.742;2023-09-12T04:39:36;5.13;;;2.60;;
80229;SDS011;69540;42.136;24.742;2023-09-12T04:42:02;2.22;;;2.03;;
80229;SDS011;69540;42.136;24.742;2023-09-12T04:44:30;7.50;;;2.47;;
80229;SDS011;69540;42.136;24.742;2023-09-12T04:47:04;2.78;;;2.25;;
80229;SDS011;69540;42.136;24.742;2023-09-12T04:49:29;3.15;;;2.65;;
80229;SDS011;69540;42.136;24.742;2023-09-12T04:51:55;4.05;;;2.33;;
80229;SDS011;69540;42.136;24.742;2023-09-12T04:54:21;4.28;;;2.30;;
80229;SDS011;69540;42.136;24.742;2023-09-12T04:56:46;4.97;;;2.47;;
80229;SDS011;69540;42.136;24.742;2023-09-12T04:59:12;3.10;;;2.28;;
80229;SDS011;69540;42.136;24.742;2023-09-12T05:01:38;5.32;;;2.50;;
80229;SDS011;69540;42.136;24.742;2023-09-12T05:04:03;4.25;;;2.40;;
80229;SDS011;69540;42.136;24.742;2023-09-12T05:06:29;3.92;;;2.30;;
80229;SDS011;69540;42.136;24.742;2023-09-12T05:08:55;2.53;;;2.25;;
80229;SDS011;69540;42.136;24.742;2023-09-12T05:11:22;4.97;;;2.53;;
80229;SDS011;69540;42.136;24.742;2023-09-12T05:13:48;4.47;;;2.50;;
80229;SDS011;69540;42.136;24.742;2023-09-12T05:16:14;3.60;;;2.60;;
80229;SDS011;69540;42.136;24.742;2023-09-12T05:18:40;5.95;;;2.70;;
80229;SDS011;69540;42.136;24.742;2023-09-12T05:21:05;7.78;;;2.90;;
80229;SDS011;69540;42.136;24.742;2023-09-12T05:23:31;4.75;;;2.58;;
80229;SDS011;69540;42.136;24.742;2023-09-12T05:25:57;5.10;;;2.63;;
80229;SDS011;69540;42.136;24.742;2023-09-12T05:28:22;4.30;;;2.80;;
80229;SDS011;69540;42.136;24.742;2023-09-12T05:30:48;5.50;;;2.60;;
80229;SDS011;69540;42.136;24.742;2023-09-12T05:33:14;5.50;;;3.05;;
80229;SDS011;69540;42.136;24.742;2023-09-12T05:35:39;5.15;;;2.90;;
80229;SDS011;69540;42.136;24.742;2023-09-12T05:38:05;5.72;;;2.35;;
80229;SDS011;69540;42.136;24.742;2023-09-12T05:40:31;5.30;;;2.70;;
80229;SDS011;69540;42.136;24.742;2023-09-12T05:42:56;4.97;;;2.70;;
80229;SDS011;69540;42.136;24.742;2023-09-12T05:45:22;4.40;;;2.85;;
80229;SDS011;69540;42.136;24.742;2023-09-12T05:47:48;5.95;;;2.92;;
80229;SDS011;69540;42.136;24.742;2023-09-12T05:50:15;5.55;;;2.60;;
80229;SDS011;69540;42.136;24.742;2023-09-12T05:52:41;4.07;;;2.40;;
80229;SDS011;69540;42.136;24.742;2023-09-12T05:55:08;8.07;;;2.65;;
80229;SDS011;69540;42.136;24.742;2023-09-12T05:57:34;4.35;;;2.40;;
80229;SDS011;69540;42.136;24.742;2023-09-12T06:00:00;7.75;;;2.88;;
80229;SDS011;69540;42.136;24.742;2023-09-12T06:02:26;5.53;;;2.30;;
80229;SDS011;69540;42.136;24.742;2023-09-12T06:04:52;5.20;;;2.55;;
80229;SDS011;69540;42.136;24.742;2023-09-12T06:07:18;2.50;;;2.30;;
80229;SDS011;69540;42.136;24.742;2023-09-12T06:09:44;3.72;;;2.38;;
80229;SDS011;69540;42.136;24.742;2023-09-12T06:12:10;4.78;;;2.50;;
80229;SDS011;69540;42.136;24.742;2023-09-12T06:14:35;8.10;;;2.78;;
80229;SDS011;69540;42.136;24.742;2023-09-12T06:17:01;6.22;;;2.42;;
80229;SDS011;69540;42.136;24.742;2023-09-12T06:19:27;6.30;;;2.38;;
80229;SDS011;69540;42.136;24.742;2023-09-12T06:21:52;6.40;;;2.60;;
80229;SDS011;69540;42.136;24.742;2023-09-12T06:24:21;5.05;;;2.17;;
80229;SDS011;69540;42.136;24.742;2023-09-12T06:26:48;5.65;;;2.50;;
80229;SDS011;69540;42.136;24.742;2023-09-12T06:29:14;4.78;;;2.33;;
80229;SDS011;69540;42.136;24.742;2023-09-12T06:31:40;5.75;;;2.45;;
80229;SDS011;69540;42.136;24.742;2023-09-12T06:34:09;4.55;;;2.42;;
80229;SDS011;69540;42.136;24.742;2023-09-12T06:36:35;2.33;;;2.10;;
80229;SDS011;69540;42.136;24.742;2023-09-12T06:39:01;5.30;;;2.30;;
80229;SDS011;69540;42.136;24.742;2023-09-12T06:41:28;7.25;;;2.80;;
80229;SDS011;69540;42.136;24.742;2023-09-12T06:43:54;4.13;;;2.55;;
80229;SDS011;69540;42.136;24.742;2023-09-12T06:46:21;3.25;;;2.60;;
80229;SDS011;69540;42.136;24.742;2023-09-12T06:48:47;8.70;;;2.70;;
80229;SDS011;69540;42.136;24.742;2023-09-12T06:51:15;2.92;;;2.30;;
80229;SDS011;69540;42.136;24.742;2023-09-12T06:53:41;4.53;;;2.47;;
80229;SDS011;69540;42.136;24.742;2023-09-12T06:56:07;4.55;;;2.47;;
80229;SDS011;69540;42.136;24.742;2023-09-12T06:58:33;3.33;;;2.15;;
80229;SDS011;69540;42.136;24.742;2023-09-12T07:01:05;5.75;;;2.00;;
80229;SDS011;69540;42.136;24.742;2023-09-12T07:05:58;7.70;;;2.25;;
80229;SDS011;69540;42.136;24.742;2023-09-12T07:08:23;5.57;;;1.90;;
80229;SDS011;69540;42.136;24.742;2023-09-12T07:10:49;4.07;;;1.98;;
80229;SDS011;69540;42.136;24.742;2023-09-12T07:13:15;3.28;;;2.10;;
80229;SDS011;69540;42.136;24.742;2023-09-12T07:15:41;3.17;;;2.10;;
80229;SDS011;69540;42.136;24.742;2023-09-12T07:18:06;4.28;;;1.85;;
80229;SDS011;69540;42.136;24.742;2023-09-12T07:20:33;2.90;;;1.73;;
80229;SDS011;69540;42.136;24.742;2023-09-12T07:22:59;2.40;;;1.80;;
80229;SDS011;69540;42.136;24.742;2023-09-12T07:25:25;3.53;;;2.00;;
80229;SDS011;69540;42.136;24.742;2023-09-12T07:27:50;3.42;;;1.80;;
80229;SDS011;69540;42.136;24.742;2023-09-12T07:30:16;2.90;;;1.80;;
80229;SDS011;69540;42.136;24.742;2023-09-12T07:32:43;1.83;;;1.73;;
80229;SDS011;69540;42.136;24.742;2023-09-12T07:35:08;2.20;;;2.00;;
80229;SDS011;69540;42.136;24.742;2023-09-12T07:37:34;3.50;;;2.20;;
80229;SDS011;69540;42.136;24.742;2023-09-12T07:40:00;4.93;;;2.08;;
80229;SDS011;69540;42.136;24.742;2023-09-12T07:42:26;4.53;;;2.28;;
80229;SDS011;69540;42.136;24.742;2023-09-12T07:44:51;4.75;;;2.50;;
80229;SDS011;69540;42.136;24.742;2023-09-12T07:47:17;2.60;;;2.40;;
80229;SDS011;69540;42.136;24.742;2023-09-12T07:49:44;4.22;;;2.58;;
80229;SDS011;69540;42.136;24.742;2023-09-12T07:52:09;3.35;;;2.25;;
80229;SDS011;69540;42.136;24.742;2023-09-12T07:54:35;3.22;;;2.60;;
80229;SDS011;69540;42.136;24.742;2023-09-12T07:57:02;6.15;;;3.00;;
80229;SDS011;69540;42.136;24.742;2023-09-12T07:59:28;3.63;;;2.67;;
80229;SDS011;69540;42.136;24.742;2023-09-12T08:01:53;2.97;;;2.67;;
80229;SDS011;69540;42.136;24.742;2023-09-12T08:04:19;4.90;;;2.38;;
80229;SDS011;69540;42.136;24.742;2023-09-12T08:06:45;3.60;;;2.45;;
80229;SDS011;69540;42.136;24.742;2023-09-12T08:09:10;3.35;;;2.28;;
80229;SDS011;69540;42.136;24.742;2023-09-12T08:11:36;3.80;;;2.60;;
80229;SDS011;69540;42.136;24.742;2023-09-12T08:14:02;4.70;;;2.38;;
80229;SDS011;69540;42.136;24.742;2023-09-12T08:16:27;3.03;;;2.70;;
80229;SDS011;69540;42.136;24.742;2023-09-12T08:18:53;3.50;;;2.45;;
80229;SDS011;69540;42.136;24.742;2023-09-12T08:21:19;2.78;;;2.58;;
80229;SDS011;69540;42.136;24.742;2023-09-12T08:23:44;4.80;;;2.38;;
80229;SDS011;69540;42.136;24.742;2023-09-12T08:26:10;4.88;;;2.50;;
80229;SDS011;69540;42.136;24.742;2023-09-12T08:28:36;5.28;;;2.70;;
80229;SDS011;69540;42.136;24.742;2023-09-12T08:31:01;3.05;;;2.35;;
80229;SDS011;69540;42.136;24.742;2023-09-12T08:33:27;2.50;;;2.30;;
80229;SDS011;69540;42.136;24.742;2023-09-12T08:35:53;3.40;;;2.42;;
80229;SDS011;69540;42.136;24.742;2023-09-12T08:38:18;2.47;;;2.22;;
80229;SDS011;69540;42.136;24.742;2023-09-12T08:40:51;3.10;;;2.50;;
80229;SDS011;69540;42.136;24.742;2023-09-12T08:43:17;5.35;;;2.67;;
80229;SDS011;69540;42.136;24.742;2023-09-12T08:45:44;4.35;;;2.70;;
80229;SDS011;69540;42.136;24.742;2023-09-12T08:48:11;2.88;;;2.40;;
80229;SDS011;69540;42.136;24.742;2023-09-12T08:50:38;4.00;;;2.70;;
80229;SDS011;69540;42.136;24.742;2023-09-12T08:53:04;2.67;;;2.30;;
80229;SDS011;69540;42.136;24.742;2023-09-12T08:55:30;2.22;;;2.00;;
80229;SDS011;69540;42.136;24.742;2023-09-12T08:58:03;2.60;;;2.40;;
80229;SDS011;69540;42.136;24.742;2023-09-12T09:00:29;4.18;;;2.30;;
80229;SDS011;69540;42.136;24.742;2023-09-12T09:02:55;2.92;;;2.40;;
80229;SDS011;69540;42.136;24.742;2023-09-12T09:05:21;5.68;;;2.72;;
80229;SDS011;69540;42.136;24.742;2023-09-12T09:07:48;2.42;;;2.22;;
80229;SDS011;69540;42.136;24.742;2023-09-12T09:10:18;2.75;;;2.30;;
80229;SDS011;69540;42.136;24.742;2023-09-12T09:12:45;3.50;;;2.45;;
80229;SDS011;69540;42.136;24.742;2023-09-12T09:15:21;2.63;;;2.10;;
80229;SDS011;69540;42.136;24.742;2023-09-12T09:17:47;3.00;;;2.15;;
80229;SDS011;69540;42.136;24.742;2023-09-12T09:20:21;3.65;;;2.10;;
80229;SDS011;69540;42.136;24.742;2023-09-12T09:25:30;2.40;;;2.20;;
80229;SDS011;69540;42.136;24.742;2023-09-12T09:28:01;4.65;;;2.00;;
80229;SDS011;69540;42.136;24.742;2023-09-12T09:30:38;3.35;;;2.53;;
80229;SDS011;69540;42.136;24.742;2023-09-12T09:33:05;3.70;;;2.25;;
80229;SDS011;69540;42.136;24.742;2023-09-12T09:35:31;3.10;;;2.30;;
80229;SDS011;69540;42.136;24.742;2023-09-12T09:37:57;2.58;;;2.05;;
80229;SDS011;69540;42.136;24.742;2023-09-12T09:40:23;3.30;;;2.15;;
80229;SDS011;69540;42.136;24.742;2023-09-12T09:42:53;3.22;;;2.05;;
80229;SDS011;69540;42.136;24.742;2023-09-12T09:45:19;2.35;;;2.15;;
80229;SDS011;69540;42.136;24.742;2023-09-12T09:47:45;2.15;;;1.98;;
80229;SDS011;69540;42.136;24.742;2023-09-12T09:50:14;2.75;;;2.28;;
80229;SDS011;69540;42.136;24.742;2023-09-12T09:52:40;3.33;;;2.17;;
80229;SDS011;69540;42.136;24.742;2023-09-12T09:55:07;3.60;;;1.92;;
80229;SDS011;69540;42.136;24.742;2023-09-12T09:57:39;2.65;;;2.17;;
80229;SDS011;69540;42.136;24.742;2023-09-12T10:00:05;2.13;;;1.92;;
80229;SDS011;69540;42.136;24.742;2023-09-12T10:02:34;2.78;;;1.60;;
80229;SDS011;69540;42.136;24.742;2023-09-12T10:05:01;3.20;;;1.90;;
80229;SDS011;69540;42.136;24.742;2023-09-12T10:07:33;2.05;;;1.85;;
80229;SDS011;69540;42.136;24.742;2023-09-12T10:10:03;1.95;;;1.75;;
80229;SDS011;69540;42.136;24.742;2023-09-12T10:12:33;3.78;;;1.77;;
80229;SDS011;69540;42.136;24.742;2023-09-12T10:15:01;3.72;;;2.03;;
80229;SDS011;69540;42.136;24.742;2023-09-12T10:17:35;2.42;;;2.00;;
80229;SDS011;69540;42.136;24.742;2023-09-12T10:20:02;2.13;;;1.83;;
80229;SDS011;69540;42.136;24.742;2023-09-12T10:25:05;2.40;;;1.80;;
80229;SDS011;69540;42.136;24.742;2023-09-12T10:27:32;2.67;;;1.88;;
80229;SDS011;69540;42.136;24.742;2023-09-12T10:29:58;3.80;;;2.03;;
80229;SDS011;69540;42.136;24.742;2023-09-12T10:32:27;3.22;;;1.63;;
80229;SDS011;69540;42.136;24.742;2023-09-12T10:34:55;2.38;;;1.92;;
80229;SDS011;69540;42.136;24.742;2023-09-12T10:37:24;3.15;;;1.80;;
80229;SDS011;69540;42.136;24.742;2023-09-12T10:39:52;4.10;;;2.05;;
80229;SDS011;69540;42.136;24.742;2023-09-12T10:42:19;2.60;;;1.70;;
80229;SDS011;69540;42.136;24.742;2023-09-12T10:44:46;1.80;;;1.67;;
80229;SDS011;69540;42.136;24.742;2023-09-12T10:47:12;3.42;;;1.92;;
80229;SDS011;69540;42.136;24.742;2023-09-12T10:49:39;2.80;;;2.08;;
80229;SDS011;69540;42.136;24.742;2023-09-12T10:52:08;2.47;;;1.90;;
80229;SDS011;69540;42.136;24.742;2023-09-12T10:54:40;2.42;;;2.15;;
80229;SDS011;69540;42.136;24.742;2023-09-12T10:57:06;2.67;;;2.00;;
80229;SDS011;69540;42.136;24.742;2023-09-12T10:59:36;2.67;;;2.20;;
80229;SDS011;69540;42.136;24.742;2023-09-12T11:04:52;2.80;;;2.15;;
80229;SDS011;69540;42.136;24.742;2023-09-12T11:12:45;3.05;;;2.10;;
80229;SDS011;69540;42.136;24.742;2023-09-12T11:15:13;3.63;;;2.20;;
80229;SDS011;69540;42.136;24.742;2023-09-12T11:17:44;3.90;;;2.22;;
80229;SDS011;69540;42.136;24.742;2023-09-12T11:20:11;4.00;;;2.13;;
80229;SDS011;69540;42.136;24.742;2023-09-12T11:22:39;7.05;;;2.42;;
80229;SDS011;69540;42.136;24.742;2023-09-12T11:25:19;3.95;;;2.17;;
80229;SDS011;69540;42.136;24.742;2023-09-12T11:30:23;2.80;;;2.30;;
80229;SDS011;69540;42.136;24.742;2023-09-12T11:32:56;2.92;;;2.10;;
80229;SDS011;69540;42.136;24.742;2023-09-12T11:35:26;3.97;;;2.40;;
80229;SDS011;69540;42.136;24.742;2023-09-12T11:37:57;4.15;;;2.40;;
80229;SDS011;69540;42.136;24.742;2023-09-12T11:40:24;5.03;;;2.42;;
80229;SDS011;69540;42.136;24.742;2023-09-12T11:43:23;2.85;;;2.10;;
80229;SDS011;69540;42.136;24.742;2023-09-12T11:45:50;3.35;;;2.50;;
80229;SDS011;69540;42.136;24.742;2023-09-12T11:48:17;5.78;;;2.40;;
80229;SDS011;69540;42.136;24.742;2023-09-12T11:50:48;5.70;;;2.53;;
80229;SDS011;69540;42.136;24.742;2023-09-12T11:53:22;6.22;;;2.70;;
80229;SDS011;69540;42.136;24.742;2023-09-12T11:55:56;3.50;;;2.50;;
80229;SDS011;69540;42.136;24.742;2023-09-12T11:58:24;2.63;;;2.10;;
80229;SDS011;69540;42.136;24.742;2023-09-12T12:00:51;3.45;;;2.40;;
80229;SDS011;69540;42.136;24.742;2023-09-12T12:03:19;2.45;;;2.25;;
80229;SDS011;69540;42.136;24.742;2023-09-12T12:05:49;3.63;;;2.65;;
80229;SDS011;69540;42.136;24.742;2023-09-12T12:08:15;3.47;;;2.28;;
80229;SDS011;69540;42.136;24.742;2023-09-12T12:10:42;4.93;;;2.60;;
80229;SDS011;69540;42.136;24.742;2023-09-12T12:13:11;9.02;;;2.50;;
80229;SDS011;69540;42.136;24.742;2023-09-12T12:15:41;4.50;;;2.60;;
80229;SDS011;69540;42.136;24.742;2023-09-12T12:18:07;3.38;;;2.47;;
80229;SDS011;69540;42.136;24.742;2023-09-12T12:20:32;4.03;;;2.42;;
80229;SDS011;69540;42.136;24.742;2023-09-12T12:22:58;5.95;;;3.10;;
80229;SDS011;69540;42.136;24.742;2023-09-12T12:25:24;5.43;;;2.55;;
80229;SDS011;69540;42.136;24.742;2023-09-12T12:27:50;4.00;;;2.53;;
80229;SDS011;69540;42.136;24.742;2023-09-12T12:30:15;4.07;;;2.40;;
80229;SDS011;69540;42.136;24.742;2023-09-12T12:32:44;3.80;;;2.70;;
80229;SDS011;69540;42.136;24.742;2023-09-12T12:35:20;5.35;;;2.60;;
80229;SDS011;69540;42.136;24.742;2023-09-12T12:37:49;3.70;;;2.55;;
80229;SDS011;69540;42.136;24.742;2023-09-12T12:40:16;4.72;;;2.80;;
80229;SDS011;69540;42.136;24.742;2023-09-12T12:42:43;4.03;;;2.60;;
80229;SDS011;69540;42.136;24.742;2023-09-12T12:45:23;4.45;;;2.40;;
80229;SDS011;69540;42.136;24.742;2023-09-12T12:47:59;3.05;;;2.30;;
80229;SDS011;69540;42.136;24.742;2023-09-12T12:50:26;2.55;;;2.35;;
80229;SDS011;69540;42.136;24.742;2023-09-12T12:52:52;4.15;;;2.60;;
80229;SDS011;69540;42.136;24.742;2023-09-12T12:55:17;2.50;;;2.30;;
80229;SDS011;69540;42.136;24.742;2023-09-12T12:57:45;3.90;;;2.42;;
80229;SDS011;69540;42.136;24.742;2023-09-12T13:00:14;4.13;;;2.40;;
80229;SDS011;69540;42.136;24.742;2023-09-12T13:02:41;2.53;;;2.30;;
80229;SDS011;69540;42.136;24.742;2023-09-12T13:05:21;2.30;;;2.20;;
80229;SDS011;69540;42.136;24.742;2023-09-12T13:07:56;2.75;;;2.40;;
80229;SDS011;69540;42.136;24.742;2023-09-12T13:10:22;2.55;;;2.30;;
80229;SDS011;69540;42.136;24.742;2023-09-12T13:12:48;3.60;;;2.40;;
80229;SDS011;69540;42.136;24.742;2023-09-12T13:15:15;2.78;;;2.17;;
80229;SDS011;69540;42.136;24.742;2023-09-12T13:17:42;3.72;;;2.40;;
80229;SDS011;69540;42.136;24.742;2023-09-12T13:20:08;2.08;;;1.90;;
80229;SDS011;69540;42.136;24.742;2023-09-12T13:22:35;3.15;;;2.28;;
80229;SDS011;69540;42.136;24.742;2023-09-12T13:25:01;4.60;;;2.42;;
80229;SDS011;69540;42.136;24.742;2023-09-12T13:27:27;3.85;;;2.38;;
80229;SDS011;69540;42.136;24.742;2023-09-12T13:29:53;2.65;;;2.20;;
80229;SDS011;69540;42.136;24.742;2023-09-12T13:32:19;2.90;;;2.28;;
80229;SDS011;69540;42.136;24.742;2023-09-12T13:34:44;3.42;;;2.17;;
80229;SDS011;69540;42.136;24.742;2023-09-12T13:37:10;2.28;;;1.98;;
80229;SDS011;69540;42.136;24.742;2023-09-12T13:39:36;3.13;;;2.30;;
80229;SDS011;69540;42.136;24.742;2023-09-12T13:42:02;3.45;;;2.10;;
80229;SDS011;69540;42.136;24.742;2023-09-12T13:44:29;2.42;;;2.17;;
80229;SDS011;69540;42.136;24.742;2023-09-12T13:46:55;4.07;;;2.40;;
80229;SDS011;69540;42.136;24.742;2023-09-12T13:49:21;2.58;;;2.33;;
80229;SDS011;69540;42.136;24.742;2023-09-12T13:51:46;2.58;;;2.05;;
80229;SDS011;69540;42.136;24.742;2023-09-12T13:54:12;4.20;;;2.22;;
80229;SDS011;69540;42.136;24.742;2023-09-12T13:56:43;3.03;;;2.20;;
80229;SDS011;69540;42.136;24.742;2023-09-12T13:59:09;2.00;;;1.90;;
80229;SDS011;69540;42.136;24.742;2023-09-12T14:01:35;3.78;;;2.40;;
80229;SDS011;69540;42.136;24.742;2023-09-12T14:04:01;2.33;;;2.13;;
80229;SDS011;69540;42.136;24.742;2023-09-12T14:06:29;3.08;;;2.15;;
80229;SDS011;69540;42.136;24.742;2023-09-12T14:08:56;3.80;;;2.40;;
80229;SDS011;69540;42.136;24.742;2023-09-12T14:11:22;4.03;;;2.25;;
80229;SDS011;69540;42.136;24.742;2023-09-12T14:13:47;4.63;;;2.13;;
80229;SDS011;69540;42.136;24.742;2023-09-12T14:16:13;2.25;;;2.05;;
80229;SDS011;69540;42.136;24.742;2023-09-12T14:18:38;2.72;;;2.28;;
80229;SDS011;69540;42.136;24.742;2023-09-12T14:21:04;3.60;;;2.20;;
80229;SDS011;69540;42.136;24.742;2023-09-12T14:23:30;2.95;;;2.13;;
80229;SDS011;69540;42.136;24.742;2023-09-12T14:25:55;2.20;;;2.00;;
80229;SDS011;69540;42.136;24.742;2023-09-12T14:28:21;2.28;;;1.95;;
80229;SDS011;69540;42.136;24.742;2023-09-12T14:30:47;1.90;;;1.80;;
80229;SDS011;69540;42.136;24.742;2023-09-12T14:33:14;2.70;;;1.80;;
80229;SDS011;69540;42.136;24.742;2023-09-12T14:35:40;3.83;;;2.00;;
80229;SDS011;69540;42.136;24.742;2023-09-12T14:38:08;1.70;;;1.60;;
80229;SDS011;69540;42.136;24.742;2023-09-12T14:40:34;4.22;;;2.10;;
80229;SDS011;69540;42.136;24.742;2023-09-12T14:43:00;4.18;;;2.08;;
80229;SDS011;69540;42.136;24.742;2023-09-12T14:45:27;3.03;;;2.10;;
80229;SDS011;69540;42.136;24.742;2023-09-12T14:47:53;2.10;;;1.90;;
80229;SDS011;69540;42.136;24.742;2023-09-12T14:50:20;5.82;;;2.20;;
80229;SDS011;69540;42.136;24.742;2023-09-12T14:52:49;3.40;;;2.10;;
80229;SDS011;69540;42.136;24.742;2023-09-12T14:55:15;2.78;;;2.00;;